Time;durP1;ratioP1;P1;durP2;ratioP2;P2;SDS_P1;SDS_P2;PMS_P1;PMS_P2;Temp;Humidity;BMP_temperature;BMP_pressure;BME280_temperature;BME280_humidity;BME280_pressure;Samples;Min_cycle;Max_cycle;Signal;HPM_P1;HPM_P2
2023/01/09 05:07:42;;;;;;;;;36.50;33.00;;;;;;;;5946332;39;10001352;-61
2023/01/09 05:13:45;;;;;;;;;34.50;32.00;;;;;;;;6491028;39;8966;-61
2023/01/09 05:19:47;;;;;;;;;50.25;34.00;;;;;;;;6492494;39;8831;-61
2023/01/09 05:25:53;;;;;;;;;35.75;30.75;;;;;;;;6491309;39;8937;-61
2023/01/09 05:31:56;;;;;;;;;33.75;30.75;;;;;;;;6490199;46;8997;-62
2023/01/09 05:37:59;;;;;;;;;39.25;33.75;;;;;;;;6489606;46;8915;-63
2023/01/09 05:44:03;;;;;;;;;41.25;36.25;;;;;;;;6491144;39;8911;-60
2023/01/09 05:50:06;;;;;;;;;45.00;33.75;;;;;;;;6492015;39;8938;-62
2023/01/09 05:56:08;;;;;;;;;25.75;23.75;;;;;;;;6491058;39;8929;-62
2023/01/09 06:02:14;;;;;;;;;47.00;40.00;;;;;;;;6491249;31;8954;-62
2023/01/09 06:08:24;;;;;;;;;44.50;36.75;;;;;;;;6490292;39;8917;-63
2023/01/09 06:14:28;;;;;;;;;42.75;39.00;;;;;;;;6489306;31;9948;-62
2023/01/09 06:20:30;;;;;;;;;46.75;39.75;;;;;;;;6490407;31;8879;-63
2023/01/09 06:26:34;;;;;;;;;35.50;32.50;;;;;;;;6489366;31;8921;-63
2023/01/09 06:32:36;;;;;;;;;54.75;41.75;;;;;;;;6489078;39;8924;-63
2023/01/09 06:38:38;;;;;;;;;43.50;38.50;;;;;;;;6308349;47;10000485;-62
2023/01/09 06:44:42;;;;;;;;;53.75;44.25;;;;;;;;6489390;39;8937;-63
2023/01/09 06:50:46;;;;;;;;;42.75;36.75;;;;;;;;6489469;39;8832;-62
2023/01/09 06:56:49;;;;;;;;;46.00;35.50;;;;;;;;6489329;39;8870;-65
2023/01/09 07:02:54;;;;;;;;;37.00;34.00;;;;;;;;6488709;39;8939;-63
2023/01/09 07:08:57;;;;;;;;;49.50;36.00;;;;;;;;6487338;31;8929;-63
2023/01/09 07:15:01;;;;;;;;;44.75;38.00;;;;;;;;6486554;39;9660;-66
2023/01/09 07:21:05;;;;;;;;;39.25;34.25;;;;;;;;6487605;39;8941;-62
2023/01/09 07:27:10;;;;;;;;;37.50;34.00;;;;;;;;6489849;39;8906;-62
2023/01/09 07:33:13;;;;;;;;;44.50;41.00;;;;;;;;6489577;39;9173;-63
2023/01/09 07:39:26;;;;;;;;;55.00;46.50;;;;;;;;6489022;31;9068;-62
2023/01/09 07:45:28;;;;;;;;;65.00;50.25;;;;;;;;6487767;39;9609;-62
2023/01/09 07:51:30;;;;;;;;;67.25;50.25;;;;;;;;6488981;39;8901;-60
2023/01/09 07:57:34;;;;;;;;;60.25;48.25;;;;;;;;6488593;39;8880;-62
2023/01/09 08:03:37;;;;;;;;;71.00;57.75;;;;;;;;6486457;46;9001;-63
2023/01/09 08:09:39;;;;;;;;;71.33;56.33;;;;;;;;6480301;39;8948;-61
2023/01/09 08:15:42;;;;;;;;;75.25;58.00;;;;;;;;6481698;39;9533;-62
2023/01/09 08:21:44;;;;;;;;;64.25;53.75;;;;;;;;6482474;46;8979;-63
2023/01/09 08:27:47;;;;;;;;;66.00;51.25;;;;;;;;6484532;31;8933;-61
2023/01/09 08:33:50;;;;;;;;;64.75;49.00;;;;;;;;6483533;39;8955;-62
2023/01/09 08:39:52;;;;;;;;;46.25;41.00;;;;;;;;6482816;39;8926;-63
2023/01/09 08:52:23;;;;;;;;;63.50;51.75;;;;;;;;6484569;46;9068;-62
2023/01/09 08:58:29;;;;;;;;;55.75;45.00;;;;;;;;6484546;39;8959;-62
2023/01/09 09:04:31;;;;;;;;;50.25;42.75;;;;;;;;6484382;46;9029;-62
2023/01/09 09:10:34;;;;;;;;;47.75;44.25;;;;;;;;6485701;46;9007;-62
2023/01/09 09:16:37;;;;;;;;;46.50;44.00;;;;;;;;6484712;39;9635;-62
2023/01/09 09:22:39;;;;;;;;;55.25;45.25;;;;;;;;6484143;39;9524;-62
2023/01/09 09:28:46;;;;;;;;;62.50;50.00;;;;;;;;6483097;39;9097;-62
2023/01/09 09:34:48;;;;;;;;;77.25;59.25;;;;;;;;6485278;39;8926;-62
2023/01/09 09:48:04;;;;;;;;;84.50;63.00;;;;;;;;6483781;39;9061;-61
2023/01/09 09:54:13;;;;;;;;;68.00;56.50;;;;;;;;6485407;31;8972;-61
2023/01/09 10:00:18;;;;;;;;;62.50;45.50;;;;;;;;6484264;31;9022;-63
2023/01/09 10:06:29;;;;;;;;;55.75;45.00;;;;;;;;6485612;31;8960;-62
2023/01/09 10:12:44;;;;;;;;;54.50;45.00;;;;;;;;6483563;39;9016;-62
2023/01/09 10:19:19;;;;;;;;;48.00;41.25;;;;;;;;6484016;31;8928;-61
2023/01/09 10:25:43;;;;;;;;;50.50;45.00;;;;;;;;6484667;31;9058;-62
2023/01/09 10:32:26;;;;;;;;;54.25;44.00;;;;;;;;6486277;31;8948;-62
2023/01/09 10:38:34;;;;;;;;;46.00;41.00;;;;;;;;6481826;39;9052;-62
2023/01/09 10:44:45;;;;;;;;;55.75;44.25;;;;;;;;6483668;47;8999;-61
2023/01/09 10:50:50;;;;;;;;;53.00;46.25;;;;;;;;6483785;39;8926;-63
2023/01/09 10:57:03;;;;;;;;;49.75;43.25;;;;;;;;6485756;39;8912;-64
2023/01/09 11:03:15;;;;;;;;;47.50;42.50;;;;;;;;6485213;31;9300;-62
2023/01/09 11:09:19;;;;;;;;;51.75;44.75;;;;;;;;6485053;39;9450;-61
2023/01/09 11:15:30;;;;;;;;;42.00;40.25;;;;;;;;6486809;31;8930;-63
2023/01/09 11:21:39;;;;;;;;;47.50;43.00;;;;;;;;6484250;31;8916;-64
2023/01/09 11:27:41;;;;;;;;;62.75;47.25;;;;;;;;6485536;31;8894;-62
2023/01/09 11:33:48;;;;;;;;;53.00;44.75;;;;;;;;6484347;31;8990;-64
2023/01/09 11:39:52;;;;;;;;;52.25;45.25;;;;;;;;6484163;39;9025;-63
2023/01/09 11:45:59;;;;;;;;;58.00;47.00;;;;;;;;6482939;46;8979;-62
2023/01/09 11:52:20;;;;;;;;;49.00;43.00;;;;;;;;6484200;39;9061;-62
2023/01/09 11:58:24;;;;;;;;;48.00;41.75;;;;;;;;6485046;36;8974;-62
2023/01/09 12:04:31;;;;;;;;;51.00;43.00;;;;;;;;6484484;39;9840;-63
2023/01/09 12:10:49;;;;;;;;;43.75;40.25;;;;;;;;6486093;39;9612;-63
2023/01/09 12:17:08;;;;;;;;;54.50;47.50;;;;;;;;6485025;39;8916;-63
2023/01/09 12:23:32;;;;;;;;;55.50;47.50;;;;;;;;6484932;39;8919;-65
2023/01/09 12:29:57;;;;;;;;;49.25;43.25;;;;;;;;6484562;46;9010;-64
2023/01/09 12:36:13;;;;;;;;;51.75;45.75;;;;;;;;6483606;31;8932;-62
2023/01/09 12:42:45;;;;;;;;;56.50;44.75;;;;;;;;6485886;39;8994;-64
2023/01/09 12:48:57;;;;;;;;;49.50;44.00;;;;;;;;6478762;46;8990;-64
2023/01/09 12:55:17;;;;;;;;;47.75;41.25;;;;;;;;6476459;31;8992;-64
2023/01/09 13:01:29;;;;;;;;;47.75;42.50;;;;;;;;6475857;39;9598;-64
2023/01/09 13:07:41;;;;;;;;;43.50;40.00;;;;;;;;6480816;31;9069;-63
2023/01/09 13:14:01;;;;;;;;;51.75;43.25;;;;;;;;6484584;46;9041;-63
2023/01/09 13:20:21;;;;;;;;;39.00;34.75;;;;;;;;6483913;39;8966;-63
2023/01/09 13:26:33;;;;;;;;;48.75;41.00;;;;;;;;6479050;31;8954;-61
2023/01/09 13:32:54;;;;;;;;;45.00;39.00;;;;;;;;6481857;39;9496;-61
2023/01/09 13:38:57;;;;;;;;;45.25;39.50;;;;;;;;6482902;39;8994;-61
2023/01/09 13:45:16;;;;;;;;;59.25;44.75;;;;;;;;6484132;39;8975;-63
2023/01/09 13:51:57;;;;;;;;;45.00;37.75;;;;;;;;6486097;39;8978;-64
2023/01/09 13:58:12;;;;;;;;;50.25;43.00;;;;;;;;6483452;31;8947;-65
2023/01/09 14:04:14;;;;;;;;;48.75;42.25;;;;;;;;6484781;39;8983;-65
2023/01/09 14:10:32;;;;;;;;;49.00;40.75;;;;;;;;6484100;39;8936;-61
2023/01/09 14:16:36;;;;;;;;;45.50;40.25;;;;;;;;6484075;39;8999;-62
2023/01/09 14:22:40;;;;;;;;;40.75;35.00;;;;;;;;6484678;39;8916;-61
2023/01/09 14:29:28;;;;;;;;;42.75;38.00;;;;;;;;6485465;31;8921;-62
2023/01/09 14:35:38;;;;;;;;;50.00;42.00;;;;;;;;6481278;39;9149;-62
2023/01/09 14:41:56;;;;;;;;;50.50;42.50;;;;;;;;6482211;39;8910;-63
2023/01/09 14:48:05;;;;;;;;;50.75;42.75;;;;;;;;6484589;39;8936;-62
2023/01/09 14:54:42;;;;;;;;;39.25;38.25;;;;;;;;6487168;39;9005;-62
2023/01/09 15:01:14;;;;;;;;;51.00;46.75;;;;;;;;6486443;39;9061;-63
2023/01/09 15:07:29;;;;;;;;;55.50;42.00;;;;;;;;6487647;39;8993;-63
2023/01/09 15:13:41;;;;;;;;;48.50;44.00;;;;;;;;6487368;47;8845;-63
2023/01/09 15:19:46;;;;;;;;;45.50;41.25;;;;;;;;6487259;47;8874;-63
2023/01/09 15:25:50;;;;;;;;;60.00;49.50;;;;;;;;6488168;39;9531;-63
2023/01/09 15:32:02;;;;;;;;;52.50;43.50;;;;;;;;6487581;47;8935;-62
2023/01/09 15:38:14;;;;;;;;;54.75;44.75;;;;;;;;6487048;39;9019;-62
2023/01/09 15:44:24;;;;;;;;;52.00;46.25;;;;;;;;6488413;39;8944;-62
2023/01/09 15:50:28;;;;;;;;;44.50;38.25;;;;;;;;6487354;31;8986;-61
2023/01/09 15:56:32;;;;;;;;;54.50;45.00;;;;;;;;6490188;39;9566;-61
2023/01/09 16:08:58;;;;;;;;;49.50;42.00;;;;;;;;6489322;31;8906;-62
2023/01/09 16:15:03;;;;;;;;;56.00;47.00;;;;;;;;6489869;39;8920;-62
2023/01/09 16:21:20;;;;;;;;;59.75;51.00;;;;;;;;6489391;39;8872;-62
2023/01/09 16:27:25;;;;;;;;;62.75;50.00;;;;;;;;6489880;46;8941;-62
2023/01/09 16:33:30;;;;;;;;;60.75;49.75;;;;;;;;6488480;39;8958;-62
2023/01/09 16:39:34;;;;;;;;;60.75;50.00;;;;;;;;6488485;39;8938;-61
2023/01/09 16:45:40;;;;;;;;;66.50;53.75;;;;;;;;6488547;46;9071;-64
2023/01/09 16:51:43;;;;;;;;;61.00;48.00;;;;;;;;6487511;39;8973;-61
2023/01/09 16:57:49;;;;;;;;;52.50;45.00;;;;;;;;6489103;39;9002;-61
2023/01/09 17:03:53;;;;;;;;;66.00;50.00;;;;;;;;6488904;39;8944;-63
2023/01/09 17:09:55;;;;;;;;;66.25;51.25;;;;;;;;6488517;46;8966;-63
2023/01/09 17:15:58;;;;;;;;;53.50;47.75;;;;;;;;6488865;46;8930;-62
2023/01/09 17:22:00;;;;;;;;;63.25;51.75;;;;;;;;6489284;39;8931;-62
2023/01/09 17:34:29;;;;;;;;;55.00;47.25;;;;;;;;6489601;31;8927;-63
2023/01/09 17:40:31;;;;;;;;;67.50;54.25;;;;;;;;6489398;46;8909;-62
2023/01/09 17:46:36;;;;;;;;;72.25;54.50;;;;;;;;6488487;46;8873;-63
2023/01/09 17:52:38;;;;;;;;;70.50;55.25;;;;;;;;6489113;31;8915;-64
2023/01/09 17:58:44;;;;;;;;;62.25;51.50;;;;;;;;6489275;46;8877;-63
2023/01/09 18:04:48;;;;;;;;;67.00;55.25;;;;;;;;6487599;39;9035;-62
2023/01/09 18:10:51;;;;;;;;;66.75;55.25;;;;;;;;6489315;31;8869;-62
2023/01/09 18:16:53;;;;;;;;;69.25;57.00;;;;;;;;6487696;46;8897;-63
2023/01/09 18:22:58;;;;;;;;;66.25;54.00;;;;;;;;6489373;31;8923;-62
2023/01/09 18:29:02;;;;;;;;;68.25;56.25;;;;;;;;6489051;39;8978;-62
2023/01/09 18:35:05;;;;;;;;;63.00;47.00;;;;;;;;6487225;46;8925;-63
2023/01/09 18:41:07;;;;;;;;;70.25;55.50;;;;;;;;6488591;47;9014;-62
2023/01/09 18:47:09;;;;;;;;;66.75;52.00;;;;;;;;6488455;31;8940;-62
2023/01/09 18:53:12;;;;;;;;;66.75;53.75;;;;;;;;6488530;31;8867;-62
2023/01/09 18:59:14;;;;;;;;;66.50;54.00;;;;;;;;6489650;39;8929;-61
2023/01/09 19:05:24;;;;;;;;;67.50;53.75;;;;;;;;6488413;39;9091;-61
2023/01/09 19:11:29;;;;;;;;;63.75;50.50;;;;;;;;6488764;39;8901;-62
2023/01/09 19:17:32;;;;;;;;;64.25;51.00;;;;;;;;6488718;31;8898;-62
2023/01/09 19:23:35;;;;;;;;;58.50;50.00;;;;;;;;6490688;31;8943;-62
2023/01/09 19:29:37;;;;;;;;;63.25;48.25;;;;;;;;6489938;39;8858;-62
2023/01/09 19:35:39;;;;;;;;;39.00;34.50;;;;;;;;6489453;31;8928;-61
2023/01/09 19:41:41;;;;;;;;;46.00;39.25;;;;;;;;6490541;31;8933;-61
2023/01/09 19:47:48;;;;;;;;;41.50;33.75;;;;;;;;6489488;31;8849;-62
2023/01/09 19:53:52;;;;;;;;;51.75;42.00;;;;;;;;6489936;46;8890;-62
2023/01/09 19:59:56;;;;;;;;;49.00;41.75;;;;;;;;6490439;39;8923;-62
2023/01/09 20:06:07;;;;;;;;;36.50;32.25;;;;;;;;6489442;39;8942;-63
2023/01/09 20:12:11;;;;;;;;;40.50;36.00;;;;;;;;6489700;39;8951;-63
2023/01/09 20:18:13;;;;;;;;;38.25;33.75;;;;;;;;6488718;46;8911;-62
2023/01/09 20:24:17;;;;;;;;;43.00;36.00;;;;;;;;6489851;31;8900;-63
2023/01/09 20:30:20;;;;;;;;;44.75;38.00;;;;;;;;6488926;39;8894;-63
2023/01/09 20:36:27;;;;;;;;;43.00;34.50;;;;;;;;6489205;39;9118;-63
2023/01/09 20:42:30;;;;;;;;;46.50;41.00;;;;;;;;6490714;31;9555;-63
2023/01/09 20:48:32;;;;;;;;;43.50;37.00;;;;;;;;6490077;31;8859;-62
2023/01/09 20:54:44;;;;;;;;;45.50;40.25;;;;;;;;6489459;46;8934;-61
2023/01/09 21:00:49;;;;;;;;;36.50;32.50;;;;;;;;6489525;46;9089;-61
2023/01/09 21:06:51;;;;;;;;;38.25;38.25;;;;;;;;6488518;39;8975;-61
2023/01/09 21:12:54;;;;;;;;;37.25;32.00;;;;;;;;6488296;39;9568;-62
2023/01/09 21:18:56;;;;;;;;;47.50;39.75;;;;;;;;6486784;46;9022;-62
2023/01/09 21:24:59;;;;;;;;;29.00;21.50;;;;;;;;6488174;39;9648;-61
2023/01/09 21:31:04;;;;;;;;;44.00;37.00;;;;;;;;6488629;39;9484;-62
2023/01/09 21:37:08;;;;;;;;;38.00;31.25;;;;;;;;6487230;39;8870;-62
2023/01/09 21:49:46;;;;;;;;;37.00;27.25;;;;;;;;6487897;46;9009;-62
2023/01/09 21:55:49;;;;;;;;;40.75;31.50;;;;;;;;6487693;39;9020;-62
2023/01/09 22:01:51;;;;;;;;;41.50;38.75;;;;;;;;6487735;46;8940;-62
2023/01/09 22:07:55;;;;;;;;;52.50;41.75;;;;;;;;6489440;31;8936;-62
2023/01/09 22:13:59;;;;;;;;;40.75;37.75;;;;;;;;6488290;39;8906;-62
2023/01/09 22:20:03;;;;;;;;;46.50;42.75;;;;;;;;6487401;39;8970;-62
2023/01/09 22:26:10;;;;;;;;;35.75;32.75;;;;;;;;6488079;31;8933;-63
2023/01/09 22:32:12;;;;;;;;;38.00;32.25;;;;;;;;6487043;46;8935;-62
2023/01/09 22:38:16;;;;;;;;;35.25;32.75;;;;;;;;6487973;47;8981;-62
2023/01/09 22:44:19;;;;;;;;;36.75;31.25;;;;;;;;6487110;39;8911;-61
2023/01/09 22:50:22;;;;;;;;;35.75;33.00;;;;;;;;6486500;39;8948;-61
2023/01/09 22:56:25;;;;;;;;;39.25;34.75;;;;;;;;6490179;39;8966;-61
2023/01/09 23:02:28;;;;;;;;;38.00;36.25;;;;;;;;6488308;39;8898;-60
2023/01/09 23:08:30;;;;;;;;;38.00;28.50;;;;;;;;6489335;39;9007;-62
2023/01/09 23:14:35;;;;;;;;;31.00;30.00;;;;;;;;6489145;39;9089;-62
2023/01/09 23:20:40;;;;;;;;;40.00;32.33;;;;;;;;6489091;39;8916;-61
2023/01/09 23:26:43;;;;;;;;;32.25;29.50;;;;;;;;6490926;31;9076;-62
2023/01/09 23:32:45;;;;;;;;;35.25;31.25;;;;;;;;6489421;46;8880;-61
2023/01/09 23:38:48;;;;;;;;;40.75;38.25;;;;;;;;6489758;39;8954;-63
2023/01/09 23:44:51;;;;;;;;;42.00;36.00;;;;;;;;6489259;39;9399;-61
2023/01/09 23:50:53;;;;;;;;;35.25;31.25;;;;;;;;6488397;31;8906;-61
2023/01/09 23:56:56;;;;;;;;;47.25;41.75;;;;;;;;6489639;39;8942;-61
